sensor_id;sensor_type;location;lat;lon;timestamp;pressure;altitude;pressure_sealevel;temperature;humidity
61761;BME280;47664;51.660;-0.100;2022-10-16T00:01:36;99852.34;;;11.55;60.00
61761;BME280;47664;51.660;-0.100;2022-10-16T00:04:08;99853.23;;;12.12;58.65
61761;BME280;47664;51.660;-0.100;2022-10-16T00:06:40;99852.40;;;11.64;59.01
61761;BME280;47664;51.660;-0.100;2022-10-16T00:09:12;99856.84;;;11.50;58.96
61761;BME280;47664;51.660;-0.100;2022-10-16T00:11:45;99859.59;;;11.43;59.69
61761;BME280;47664;51.660;-0.100;2022-10-16T00:14:18;99864.52;;;11.40;59.62
61761;BME280;47664;51.660;-0.100;2022-10-16T00:16:50;99864.69;;;11.62;58.97
61761;BME280;47664;51.660;-0.100;2022-10-16T00:19:22;99864.74;;;10.96;59.61
61761;BME280;47664;51.660;-0.100;2022-10-16T00:21:54;99866.28;;;11.57;59.22
61761;BME280;47664;51.660;-0.100;2022-10-16T00:24:26;99866.64;;;11.41;59.58
61761;BME280;47664;51.660;-0.100;2022-10-16T00:26:58;99867.57;;;11.84;58.82
61761;BME280;47664;51.660;-0.100;2022-10-16T00:29:30;99867.80;;;11.95;58.45
61761;BME280;47664;51.660;-0.100;2022-10-16T00:32:02;99864.25;;;11.54;58.71
61761;BME280;47664;51.660;-0.100;2022-10-16T00:34:35;99871.93;;;11.35;59.82
61761;BME280;47664;51.660;-0.100;2022-10-16T00:37:07;99875.21;;;11.40;59.42
61761;BME280;47664;51.660;-0.100;2022-10-16T00:39:40;99884.36;;;11.36;58.96
61761;BME280;47664;51.660;-0.100;2022-10-16T00:42:15;99885.58;;;11.53;59.07
61761;BME280;47664;51.660;-0.100;2022-10-16T00:44:50;99884.04;;;11.27;58.61
61761;BME280;47664;51.660;-0.100;2022-10-16T00:47:22;99884.54;;;11.46;58.19
61761;BME280;47664;51.660;-0.100;2022-10-16T00:50:00;99888.12;;;11.78;58.41
61761;BME280;47664;51.660;-0.100;2022-10-16T00:52:33;99886.86;;;11.95;58.05
61761;BME280;47664;51.660;-0.100;2022-10-16T00:55:07;99882.62;;;12.00;58.06
61761;BME280;47664;51.660;-0.100;2022-10-16T00:57:40;99888.12;;;11.80;57.88
61761;BME280;47664;51.660;-0.100;2022-10-16T01:00:17;99882.13;;;11.61;58.56
61761;BME280;47664;51.660;-0.100;2022-10-16T01:02:52;99884.53;;;11.81;58.30
61761;BME280;47664;51.660;-0.100;2022-10-16T01:05:25;99886.31;;;11.91;58.14
61761;BME280;47664;51.660;-0.100;2022-10-16T01:08:04;99893.10;;;11.58;58.93
61761;BME280;47664;51.660;-0.100;2022-10-16T01:10:44;99891.72;;;12.12;59.17
61761;BME280;47664;51.660;-0.100;2022-10-16T01:13:21;99895.34;;;12.11;58.29
61761;BME280;47664;51.660;-0.100;2022-10-16T01:15:56;99900.34;;;11.75;59.20
61761;BME280;47664;51.660;-0.100;2022-10-16T01:18:31;99902.55;;;11.92;59.89
61761;BME280;47664;51.660;-0.100;2022-10-16T01:21:03;99895.40;;;11.64;60.15
61761;BME280;47664;51.660;-0.100;2022-10-16T01:23:40;99900.03;;;11.97;59.94
61761;BME280;47664;51.660;-0.100;2022-10-16T01:26:22;99902.01;;;11.64;60.47
61761;BME280;47664;51.660;-0.100;2022-10-16T01:29:03;99901.89;;;11.39;60.82
61761;BME280;47664;51.660;-0.100;2022-10-16T01:31:40;99901.50;;;11.10;61.15
61761;BME280;47664;51.660;-0.100;2022-10-16T01:34:16;99900.86;;;11.39;60.07
61761;BME280;47664;51.660;-0.100;2022-10-16T01:36:55;99905.11;;;11.40;60.15
61761;BME280;47664;51.660;-0.100;2022-10-16T01:39:31;99902.99;;;11.67;59.65
61761;BME280;47664;51.660;-0.100;2022-10-16T01:42:04;99908.37;;;10.97;60.44
61761;BME280;47664;51.660;-0.100;2022-10-16T01:44:39;99904.56;;;11.56;59.41
61761;BME280;47664;51.660;-0.100;2022-10-16T01:47:12;99903.58;;;11.59;59.26
61761;BME280;47664;51.660;-0.100;2022-10-16T01:49:46;99903.63;;;11.20;59.49
61761;BME280;47664;51.660;-0.100;2022-10-16T01:52:16;99895.45;;;10.97;59.78
61761;BME280;47664;51.660;-0.100;2022-10-16T01:54:52;99893.55;;;11.36;58.89
61761;BME280;47664;51.660;-0.100;2022-10-16T01:57:27;99898.56;;;11.35;58.53
61761;BME280;47664;51.660;-0.100;2022-10-16T02:00:00;99912.70;;;11.82;57.94
61761;BME280;47664;51.660;-0.100;2022-10-16T02:02:35;99910.87;;;11.63;57.98
61761;BME280;47664;51.660;-0.100;2022-10-16T02:05:10;99906.71;;;12.14;56.88
61761;BME280;47664;51.660;-0.100;2022-10-16T02:07:43;99917.58;;;11.69;57.47
61761;BME280;47664;51.660;-0.100;2022-10-16T02:10:16;99920.00;;;11.39;59.33
61761;BME280;47664;51.660;-0.100;2022-10-16T02:12:49;99919.98;;;11.56;59.47
61761;BME280;47664;51.660;-0.100;2022-10-16T02:15:22;99926.47;;;11.52;59.27
61761;BME280;47664;51.660;-0.100;2022-10-16T02:17:54;99925.69;;;11.37;59.59
61761;BME280;47664;51.660;-0.100;2022-10-16T02:20:25;99931.62;;;11.39;59.21
61761;BME280;47664;51.660;-0.100;2022-10-16T02:22:59;99934.47;;;11.64;59.00
61761;BME280;47664;51.660;-0.100;2022-10-16T02:25:37;99938.86;;;11.33;60.24
61761;BME280;47664;51.660;-0.100;2022-10-16T02:28:10;99940.22;;;11.16;59.65
61761;BME280;47664;51.660;-0.100;2022-10-16T02:30:47;99943.08;;;11.46;60.09
61761;BME280;47664;51.660;-0.100;2022-10-16T02:33:23;99941.18;;;11.56;60.45
61761;BME280;47664;51.660;-0.100;2022-10-16T02:35:57;99949.92;;;11.33;60.58
61761;BME280;47664;51.660;-0.100;2022-10-16T02:38:30;99946.23;;;11.43;60.00
61761;BME280;47664;51.660;-0.100;2022-10-16T02:41:03;99952.23;;;11.73;59.26
61761;BME280;47664;51.660;-0.100;2022-10-16T02:43:35;99952.25;;;11.65;59.28
61761;BME280;47664;51.660;-0.100;2022-10-16T02:46:07;99953.05;;;11.04;60.36
61761;BME280;47664;51.660;-0.100;2022-10-16T02:48:41;99946.82;;;11.00;60.69
61761;BME280;47664;51.660;-0.100;2022-10-16T02:51:13;99955.00;;;11.48;59.48
61761;BME280;47664;51.660;-0.100;2022-10-16T02:53:45;99955.96;;;11.15;60.18
61761;BME280;47664;51.660;-0.100;2022-10-16T02:56:18;99960.85;;;10.86;61.12
61761;BME280;47664;51.660;-0.100;2022-10-16T02:58:50;99966.20;;;10.89;61.10
61761;BME280;47664;51.660;-0.100;2022-10-16T03:01:22;99971.71;;;11.14;60.77
61761;BME280;47664;51.660;-0.100;2022-10-16T03:03:54;99968.95;;;11.15;60.10
61761;BME280;47664;51.660;-0.100;2022-10-16T03:06:26;99973.74;;;10.96;60.53
61761;BME280;47664;51.660;-0.100;2022-10-16T03:08:58;99980.68;;;10.64;61.20
61761;BME280;47664;51.660;-0.100;2022-10-16T03:11:30;99985.48;;;10.59;61.27
61761;BME280;47664;51.660;-0.100;2022-10-16T03:14:02;99990.58;;;10.87;60.70
61761;BME280;47664;51.660;-0.100;2022-10-16T03:16:35;99997.40;;;11.15;60.11
61761;BME280;47664;51.660;-0.100;2022-10-16T03:19:06;100000.75;;;11.22;58.85
61761;BME280;47664;51.660;-0.100;2022-10-16T03:21:39;100004.78;;;11.05;59.58
61761;BME280;47664;51.660;-0.100;2022-10-16T03:24:10;100004.82;;;11.51;58.25
61761;BME280;47664;51.660;-0.100;2022-10-16T03:26:43;100002.87;;;10.61;59.61
61761;BME280;47664;51.660;-0.100;2022-10-16T03:29:14;100008.48;;;10.94;59.06
61761;BME280;47664;51.660;-0.100;2022-10-16T03:31:47;100011.97;;;10.99;58.99
61761;BME280;47664;51.660;-0.100;2022-10-16T03:34:19;100012.20;;;11.03;58.68
61761;BME280;47664;51.660;-0.100;2022-10-16T03:36:51;100013.19;;;10.85;58.90
61761;BME280;47664;51.660;-0.100;2022-10-16T03:39:23;100016.17;;;11.34;58.77
61761;BME280;47664;51.660;-0.100;2022-10-16T03:41:55;100027.83;;;10.78;58.89
61761;BME280;47664;51.660;-0.100;2022-10-16T03:44:27;100024.67;;;10.81;58.92
61761;BME280;47664;51.660;-0.100;2022-10-16T03:46:59;100024.14;;;11.24;57.90
61761;BME280;47664;51.660;-0.100;2022-10-16T03:49:31;100027.77;;;11.25;57.85
61761;BME280;47664;51.660;-0.100;2022-10-16T03:52:03;100034.65;;;11.18;58.04
61761;BME280;47664;51.660;-0.100;2022-10-16T03:54:35;100042.03;;;11.01;59.01
61761;BME280;47664;51.660;-0.100;2022-10-16T03:57:08;100044.35;;;10.89;59.09
61761;BME280;47664;51.660;-0.100;2022-10-16T03:59:40;100053.62;;;10.86;59.24
61761;BME280;47664;51.660;-0.100;2022-10-16T04:02:12;100056.29;;;10.60;60.37
61761;BME280;47664;51.660;-0.100;2022-10-16T04:04:45;100056.34;;;10.67;59.92
61761;BME280;47664;51.660;-0.100;2022-10-16T04:07:17;100064.43;;;10.91;59.93
61761;BME280;47664;51.660;-0.100;2022-10-16T04:09:49;100067.71;;;10.64;60.20
61761;BME280;47664;51.660;-0.100;2022-10-16T04:12:21;100075.21;;;10.58;60.39
61761;BME280;47664;51.660;-0.100;2022-10-16T04:14:53;100077.44;;;10.75;60.59
61761;BME280;47664;51.660;-0.100;2022-10-16T04:17:25;100080.18;;;10.32;61.67
61761;BME280;47664;51.660;-0.100;2022-10-16T04:19:57;100079.77;;;10.71;60.98
61761;BME280;47664;51.660;-0.100;2022-10-16T04:22:30;100079.44;;;10.79;60.87
61761;BME280;47664;51.660;-0.100;2022-10-16T04:25:02;100078.92;;;11.10;59.98
61761;BME280;47664;51.660;-0.100;2022-10-16T04:27:34;100081.58;;;10.97;60.24
61761;BME280;47664;51.660;-0.100;2022-10-16T04:30:06;100093.20;;;10.71;60.29
61761;BME280;47664;51.660;-0.100;2022-10-16T04:32:40;100092.47;;;10.64;60.51
61761;BME280;47664;51.660;-0.100;2022-10-16T04:35:12;100096.61;;;10.66;60.49
61761;BME280;47664;51.660;-0.100;2022-10-16T04:37:44;100102.97;;;10.93;60.87
61761;BME280;47664;51.660;-0.100;2022-10-16T04:40:17;100110.28;;;10.36;61.79
61761;BME280;47664;51.660;-0.100;2022-10-16T04:42:49;100115.61;;;10.80;60.76
61761;BME280;47664;51.660;-0.100;2022-10-16T04:45:22;100116.34;;;10.94;60.24
61761;BME280;47664;51.660;-0.100;2022-10-16T04:47:56;100123.58;;;10.69;60.38
61761;BME280;47664;51.660;-0.100;2022-10-16T04:50:29;100127.54;;;10.87;60.04
61761;BME280;47664;51.660;-0.100;2022-10-16T04:53:01;100136.38;;;10.96;59.78
61761;BME280;47664;51.660;-0.100;2022-10-16T04:55:33;100139.13;;;11.26;59.02
61761;BME280;47664;51.660;-0.100;2022-10-16T04:58:05;100147.39;;;10.92;59.29
61761;BME280;47664;51.660;-0.100;2022-10-16T05:00:38;100151.47;;;11.02;59.33
61761;BME280;47664;51.660;-0.100;2022-10-16T05:03:11;100151.95;;;10.84;59.87
61761;BME280;47664;51.660;-0.100;2022-10-16T05:05:42;100162.29;;;10.53;60.37
61761;BME280;47664;51.660;-0.100;2022-10-16T05:08:15;100171.58;;;10.21;61.24
61761;BME280;47664;51.660;-0.100;2022-10-16T05:10:48;100176.60;;;10.65;60.60
61761;BME280;47664;51.660;-0.100;2022-10-16T05:13:20;100182.98;;;10.92;60.03
61761;BME280;47664;51.660;-0.100;2022-10-16T05:15:52;100182.10;;;10.92;59.30
61761;BME280;47664;51.660;-0.100;2022-10-16T05:18:25;100186.13;;;11.09;58.74
61761;BME280;47664;51.660;-0.100;2022-10-16T05:20:57;100194.54;;;11.39;58.34
61761;BME280;47664;51.660;-0.100;2022-10-16T05:23:30;100194.86;;;11.26;58.07
61761;BME280;47664;51.660;-0.100;2022-10-16T05:26:02;100199.03;;;10.96;58.63
61761;BME280;47664;51.660;-0.100;2022-10-16T05:28:35;100202.05;;;10.37;59.96
61761;BME280;47664;51.660;-0.100;2022-10-16T05:31:09;100211.31;;;10.64;60.95
61761;BME280;47664;51.660;-0.100;2022-10-16T05:33:42;100215.28;;;10.77;59.92
61761;BME280;47664;51.660;-0.100;2022-10-16T05:36:14;100217.42;;;10.69;59.95
61761;BME280;47664;51.660;-0.100;2022-10-16T05:38:49;100219.45;;;10.63;59.96
61761;BME280;47664;51.660;-0.100;2022-10-16T05:41:22;100220.25;;;11.07;59.12
61761;BME280;47664;51.660;-0.100;2022-10-16T05:43:54;100225.81;;;11.01;59.29
61761;BME280;47664;51.660;-0.100;2022-10-16T05:46:26;100231.13;;;11.29;58.14
61761;BME280;47664;51.660;-0.100;2022-10-16T05:48:58;100238.05;;;10.91;59.34
61761;BME280;47664;51.660;-0.100;2022-10-16T05:51:30;100242.75;;;11.31;58.75
61761;BME280;47664;51.660;-0.100;2022-10-16T05:54:02;100245.71;;;11.53;58.11
61761;BME280;47664;51.660;-0.100;2022-10-16T05:56:34;100253.94;;;11.44;57.83
61761;BME280;47664;51.660;-0.100;2022-10-16T05:59:08;100258.08;;;11.45;57.41
61761;BME280;47664;51.660;-0.100;2022-10-16T06:01:40;100263.67;;;11.04;58.18
61761;BME280;47664;51.660;-0.100;2022-10-16T06:04:13;100267.25;;;11.60;57.65
61761;BME280;47664;51.660;-0.100;2022-10-16T06:06:45;100269.25;;;11.20;57.69
61761;BME280;47664;51.660;-0.100;2022-10-16T06:09:17;100266.91;;;11.10;57.84
61761;BME280;47664;51.660;-0.100;2022-10-16T06:11:49;100270.00;;;11.41;58.35
61761;BME280;47664;51.660;-0.100;2022-10-16T06:14:21;100275.07;;;11.14;58.37
61761;BME280;47664;51.660;-0.100;2022-10-16T06:16:53;100274.61;;;11.38;58.05
61761;BME280;47664;51.660;-0.100;2022-10-16T06:19:25;100276.57;;;11.03;58.27
61761;BME280;47664;51.660;-0.100;2022-10-16T06:21:58;100272.86;;;10.77;58.50
61761;BME280;47664;51.660;-0.100;2022-10-16T06:24:30;100276.96;;;10.97;58.68
61761;BME280;47664;51.660;-0.100;2022-10-16T06:27:02;100277.39;;;10.90;58.43
61761;BME280;47664;51.660;-0.100;2022-10-16T06:29:35;100283.20;;;10.92;58.50
61761;BME280;47664;51.660;-0.100;2022-10-16T06:32:07;100289.37;;;11.07;57.98
61761;BME280;47664;51.660;-0.100;2022-10-16T06:34:39;100294.43;;;11.08;57.75
61761;BME280;47664;51.660;-0.100;2022-10-16T06:37:11;100302.27;;;10.98;57.35
61761;BME280;47664;51.660;-0.100;2022-10-16T06:39:43;100306.04;;;10.89;56.66
61761;BME280;47664;51.660;-0.100;2022-10-16T06:42:15;100306.11;;;11.50;56.33
61761;BME280;47664;51.660;-0.100;2022-10-16T06:44:48;100306.86;;;11.30;55.55
61761;BME280;47664;51.660;-0.100;2022-10-16T06:47:20;100307.81;;;11.45;55.09
61761;BME280;47664;51.660;-0.100;2022-10-16T06:49:52;100314.57;;;11.41;55.15
61761;BME280;47664;51.660;-0.100;2022-10-16T06:52:27;100319.45;;;11.41;55.16
61761;BME280;47664;51.660;-0.100;2022-10-16T06:54:59;100324.93;;;11.22;55.56
61761;BME280;47664;51.660;-0.100;2022-10-16T06:57:32;100329.20;;;11.22;55.57
61761;BME280;47664;51.660;-0.100;2022-10-16T07:00:05;100331.29;;;11.42;55.75
61761;BME280;47664;51.660;-0.100;2022-10-16T07:02:40;100335.50;;;11.40;55.04
61761;BME280;47664;51.660;-0.100;2022-10-16T07:05:12;100343.17;;;11.45;55.25
61761;BME280;47664;51.660;-0.100;2022-10-16T07:07:44;100346.69;;;11.37;54.95
61761;BME280;47664;51.660;-0.100;2022-10-16T07:10:16;100349.91;;;11.57;54.56
61761;BME280;47664;51.660;-0.100;2022-10-16T07:12:47;100359.97;;;11.23;55.22
61761;BME280;47664;51.660;-0.100;2022-10-16T07:15:19;100364.80;;;11.67;55.10
61761;BME280;47664;51.660;-0.100;2022-10-16T07:17:52;100369.50;;;11.70;54.48
61761;BME280;47664;51.660;-0.100;2022-10-16T07:20:24;100375.56;;;11.34;54.91
61761;BME280;47664;51.660;-0.100;2022-10-16T07:22:57;100383.90;;;11.25;55.39
61761;BME280;47664;51.660;-0.100;2022-10-16T07:25:29;100392.65;;;11.37;55.74
61761;BME280;47664;51.660;-0.100;2022-10-16T07:28:01;100396.43;;;11.51;55.01
61761;BME280;47664;51.660;-0.100;2022-10-16T07:30:34;100400.63;;;11.60;54.77
61761;BME280;47664;51.660;-0.100;2022-10-16T07:33:06;100404.38;;;11.74;54.79
61761;BME280;47664;51.660;-0.100;2022-10-16T07:35:46;100407.81;;;11.80;54.66
61761;BME280;47664;51.660;-0.100;2022-10-16T07:38:19;100413.64;;;11.93;54.47
61761;BME280;47664;51.660;-0.100;2022-10-16T07:40:56;100416.89;;;12.14;54.09
61761;BME280;47664;51.660;-0.100;2022-10-16T07:43:28;100418.31;;;12.02;53.83
61761;BME280;47664;51.660;-0.100;2022-10-16T07:46:01;100422.80;;;12.26;53.80
61761;BME280;47664;51.660;-0.100;2022-10-16T07:48:35;100427.79;;;12.25;53.94
61761;BME280;47664;51.660;-0.100;2022-10-16T07:51:09;100431.65;;;11.93;53.98
61761;BME280;47664;51.660;-0.100;2022-10-16T07:53:42;100435.58;;;11.80;54.58
61761;BME280;47664;51.660;-0.100;2022-10-16T07:56:14;100440.27;;;12.43;54.10
61761;BME280;47664;51.660;-0.100;2022-10-16T07:58:47;100449.52;;;11.96;54.52
61761;BME280;47664;51.660;-0.100;2022-10-16T08:01:20;100448.30;;;12.05;54.74
61761;BME280;47664;51.660;-0.100;2022-10-16T08:03:54;100455.66;;;12.40;54.11
61761;BME280;47664;51.660;-0.100;2022-10-16T08:06:26;100459.39;;;12.00;54.36
61761;BME280;47664;51.660;-0.100;2022-10-16T08:08:59;100462.70;;;12.42;54.20
61761;BME280;47664;51.660;-0.100;2022-10-16T08:11:31;100467.80;;;12.14;54.62
61761;BME280;47664;51.660;-0.100;2022-10-16T08:14:03;100463.58;;;12.34;54.40
61761;BME280;47664;51.660;-0.100;2022-10-16T08:16:35;100468.97;;;12.29;53.97
61761;BME280;47664;51.660;-0.100;2022-10-16T08:19:07;100470.76;;;12.46;53.71
61761;BME280;47664;51.660;-0.100;2022-10-16T08:21:39;100473.66;;;12.96;53.48
61761;BME280;47664;51.660;-0.100;2022-10-16T08:24:11;100481.89;;;12.75;53.09
61761;BME280;47664;51.660;-0.100;2022-10-16T08:26:43;100487.13;;;12.58;52.75
61761;BME280;47664;51.660;-0.100;2022-10-16T08:29:16;100487.75;;;12.79;52.40
61761;BME280;47664;51.660;-0.100;2022-10-16T08:31:48;100489.58;;;13.08;51.99
61761;BME280;47664;51.660;-0.100;2022-10-16T08:34:20;100495.98;;;12.67;52.88
61761;BME280;47664;51.660;-0.100;2022-10-16T08:36:52;100501.99;;;12.79;52.50
61761;BME280;47664;51.660;-0.100;2022-10-16T08:39:24;100505.11;;;12.98;52.96
61761;BME280;47664;51.660;-0.100;2022-10-16T08:42:12;100513.11;;;12.94;52.78
61761;BME280;47664;51.660;-0.100;2022-10-16T08:44:58;100510.20;;;12.84;52.49
61761;BME280;47664;51.660;-0.100;2022-10-16T08:47:40;100509.25;;;12.91;52.95
61761;BME280;47664;51.660;-0.100;2022-10-16T08:50:18;100517.41;;;13.11;52.15
61761;BME280;47664;51.660;-0.100;2022-10-16T08:52:53;100519.04;;;13.22;51.67
61761;BME280;47664;51.660;-0.100;2022-10-16T08:55:31;100520.60;;;12.90;52.31
61761;BME280;47664;51.660;-0.100;2022-10-16T08:58:10;100524.49;;;12.82;52.56
61761;BME280;47664;51.660;-0.100;2022-10-16T09:00:44;100524.95;;;12.74;52.53
61761;BME280;47664;51.660;-0.100;2022-10-16T09:03:20;100526.35;;;12.61;52.89
61761;BME280;47664;51.660;-0.100;2022-10-16T09:05:58;100528.62;;;12.69;53.10
61761;BME280;47664;51.660;-0.100;2022-10-16T09:08:40;100530.40;;;12.75;53.50
61761;BME280;47664;51.660;-0.100;2022-10-16T09:11:17;100532.93;;;13.07;52.09
61761;BME280;47664;51.660;-0.100;2022-10-16T09:13:56;100536.01;;;12.94;52.37
61761;BME280;47664;51.660;-0.100;2022-10-16T09:16:32;100539.20;;;12.82;53.27
61761;BME280;47664;51.660;-0.100;2022-10-16T09:19:09;100543.79;;;12.44;53.86
61761;BME280;47664;51.660;-0.100;2022-10-16T09:21:41;100545.99;;;12.57;53.02
61761;BME280;47664;51.660;-0.100;2022-10-16T09:24:17;100547.74;;;12.90;52.89
61761;BME280;47664;51.660;-0.100;2022-10-16T09:26:50;100558.72;;;12.58;53.50
61761;BME280;47664;51.660;-0.100;2022-10-16T09:29:23;100561.76;;;12.51;53.24
61761;BME280;47664;51.660;-0.100;2022-10-16T09:31:56;100560.68;;;13.42;51.46
61761;BME280;47664;51.660;-0.100;2022-10-16T09:34:42;100558.58;;;13.12;52.23
61761;BME280;47664;51.660;-0.100;2022-10-16T09:37:13;100559.55;;;13.35;51.79
61761;BME280;47664;51.660;-0.100;2022-10-16T09:39:46;100560.20;;;13.55;51.14
61761;BME280;47664;51.660;-0.100;2022-10-16T09:42:16;100561.39;;;13.02;52.61
61761;BME280;47664;51.660;-0.100;2022-10-16T09:44:47;100560.43;;;13.01;52.02
61761;BME280;47664;51.660;-0.100;2022-10-16T09:47:22;100563.52;;;13.76;51.30
61761;BME280;47664;51.660;-0.100;2022-10-16T09:49:57;100557.30;;;13.77;50.48
61761;BME280;47664;51.660;-0.100;2022-10-16T09:52:31;100558.95;;;13.77;50.43
61761;BME280;47664;51.660;-0.100;2022-10-16T09:55:12;100556.80;;;13.83;50.09
61761;BME280;47664;51.660;-0.100;2022-10-16T09:57:49;100559.56;;;13.80;49.91
61761;BME280;47664;51.660;-0.100;2022-10-16T10:00:23;100561.96;;;14.06;49.15
61761;BME280;47664;51.660;-0.100;2022-10-16T10:02:56;100563.88;;;13.71;49.21
61761;BME280;47664;51.660;-0.100;2022-10-16T10:05:30;100568.28;;;14.13;49.21
61761;BME280;47664;51.660;-0.100;2022-10-16T10:08:12;100572.21;;;14.40;48.72
61761;BME280;47664;51.660;-0.100;2022-10-16T10:10:47;100573.27;;;14.39;48.06
61761;BME280;47664;51.660;-0.100;2022-10-16T10:13:19;100569.35;;;14.98;47.59
61761;BME280;47664;51.660;-0.100;2022-10-16T10:15:52;100568.42;;;14.74;48.08
61761;BME280;47664;51.660;-0.100;2022-10-16T10:18:26;100570.13;;;14.60;47.69
61761;BME280;47664;51.660;-0.100;2022-10-16T10:21:01;100570.41;;;14.83;47.75
61761;BME280;47664;51.660;-0.100;2022-10-16T10:23:35;100574.02;;;15.01;47.07
61761;BME280;47664;51.660;-0.100;2022-10-16T10:26:06;100573.58;;;14.61;48.73
61761;BME280;47664;51.660;-0.100;2022-10-16T10:28:49;100577.24;;;14.37;48.06
61761;BME280;47664;51.660;-0.100;2022-10-16T10:31:26;100576.79;;;14.35;48.42
61761;BME280;47664;51.660;-0.100;2022-10-16T10:33:58;100574.79;;;13.97;48.73
61761;BME280;47664;51.660;-0.100;2022-10-16T10:36:41;100572.98;;;13.97;49.03
61761;BME280;47664;51.660;-0.100;2022-10-16T10:39:13;100570.48;;;14.66;47.22
61761;BME280;47664;51.660;-0.100;2022-10-16T10:42:00;100569.75;;;14.58;47.32
61761;BME280;47664;51.660;-0.100;2022-10-16T10:44:45;100574.28;;;15.12;46.63
61761;BME280;47664;51.660;-0.100;2022-10-16T10:47:26;100577.91;;;15.20;45.80
61761;BME280;47664;51.660;-0.100;2022-10-16T10:50:07;100572.59;;;14.94;46.02
61761;BME280;47664;51.660;-0.100;2022-10-16T10:52:48;100575.76;;;14.84;46.64
61761;BME280;47664;51.660;-0.100;2022-10-16T10:55:25;100573.29;;;15.04;46.45
61761;BME280;47664;51.660;-0.100;2022-10-16T10:58:10;100579.78;;;15.23;45.51
61761;BME280;47664;51.660;-0.100;2022-10-16T11:00:48;100577.47;;;14.75;46.18
61761;BME280;47664;51.660;-0.100;2022-10-16T11:03:32;100567.57;;;14.48;47.08
61761;BME280;47664;51.660;-0.100;2022-10-16T11:06:10;100567.04;;;14.81;46.84
61761;BME280;47664;51.660;-0.100;2022-10-16T11:08:46;100566.15;;;14.75;45.69
61761;BME280;47664;51.660;-0.100;2022-10-16T11:11:19;100565.36;;;14.85;46.47
61761;BME280;47664;51.660;-0.100;2022-10-16T11:13:57;100560.08;;;14.52;46.79
61761;BME280;47664;51.660;-0.100;2022-10-16T11:16:34;100565.09;;;13.60;48.67
61761;BME280;47664;51.660;-0.100;2022-10-16T11:19:11;100566.51;;;14.48;47.63
61761;BME280;47664;51.660;-0.100;2022-10-16T11:21:46;100566.29;;;14.82;46.85
61761;BME280;47664;51.660;-0.100;2022-10-16T11:24:21;100565.55;;;15.02;47.02
61761;BME280;47664;51.660;-0.100;2022-10-16T11:26:52;100567.22;;;15.19;46.16
61761;BME280;47664;51.660;-0.100;2022-10-16T11:29:25;100568.30;;;14.87;46.56
61761;BME280;47664;51.660;-0.100;2022-10-16T11:31:58;100571.83;;;15.33;46.15
61761;BME280;47664;51.660;-0.100;2022-10-16T11:34:31;100567.40;;;15.71;45.35
61761;BME280;47664;51.660;-0.100;2022-10-16T11:37:07;100566.45;;;14.87;45.58
61761;BME280;47664;51.660;-0.100;2022-10-16T11:39:43;100568.84;;;15.22;45.21
61761;BME280;47664;51.660;-0.100;2022-10-16T11:42:16;100566.19;;;15.71;45.03
61761;BME280;47664;51.660;-0.100;2022-10-16T11:44:53;100563.69;;;15.62;44.41
61761;BME280;47664;51.660;-0.100;2022-10-16T11:47:30;100562.33;;;15.66;44.80
61761;BME280;47664;51.660;-0.100;2022-10-16T11:50:22;100564.07;;;15.25;45.33
61761;BME280;47664;51.660;-0.100;2022-10-16T11:52:54;100566.61;;;15.13;45.72
61761;BME280;47664;51.660;-0.100;2022-10-16T11:55:30;100565.63;;;15.38;45.35
61761;BME280;47664;51.660;-0.100;2022-10-16T11:58:03;100563.43;;;15.17;45.04
61761;BME280;47664;51.660;-0.100;2022-10-16T12:00:37;100558.53;;;15.27;43.69
61761;BME280;47664;51.660;-0.100;2022-10-16T12:03:14;100557.59;;;15.50;43.38
61761;BME280;47664;51.660;-0.100;2022-10-16T12:05:57;100555.56;;;15.05;43.36
61761;BME280;47664;51.660;-0.100;2022-10-16T12:08:34;100562.94;;;15.31;42.79
61761;BME280;47664;51.660;-0.100;2022-10-16T12:11:20;100566.16;;;14.85;43.80
61761;BME280;47664;51.660;-0.100;2022-10-16T12:14:03;100566.64;;;15.03;43.92
61761;BME280;47664;51.660;-0.100;2022-10-16T12:16:36;100565.03;;;14.26;45.19
61761;BME280;47664;51.660;-0.100;2022-10-16T12:19:13;100566.66;;;14.46;44.87
61761;BME280;47664;51.660;-0.100;2022-10-16T12:21:46;100567.83;;;14.91;44.44
61761;BME280;47664;51.660;-0.100;2022-10-16T12:24:31;100569.00;;;15.10;44.50
61761;BME280;47664;51.660;-0.100;2022-10-16T12:27:05;100574.07;;;15.29;44.34
61761;BME280;47664;51.660;-0.100;2022-10-16T12:29:40;100573.30;;;15.04;43.14
61761;BME280;47664;51.660;-0.100;2022-10-16T12:32:26;100578.94;;;15.52;42.93
61761;BME280;47664;51.660;-0.100;2022-10-16T12:35:00;100574.26;;;15.72;42.84
61761;BME280;47664;51.660;-0.100;2022-10-16T12:37:36;100570.32;;;15.52;43.01
61761;BME280;47664;51.660;-0.100;2022-10-16T12:40:13;100569.43;;;15.41;43.38
61761;BME280;47664;51.660;-0.100;2022-10-16T12:42:47;100562.57;;;15.48;44.00
61761;BME280;47664;51.660;-0.100;2022-10-16T12:45:26;100561.14;;;15.13;43.74
61761;BME280;47664;51.660;-0.100;2022-10-16T12:47:59;100555.96;;;14.93;44.42
61761;BME280;47664;51.660;-0.100;2022-10-16T12:50:32;100556.25;;;15.17;43.98
61761;BME280;47664;51.660;-0.100;2022-10-16T12:53:17;100555.92;;;15.47;43.55
61761;BME280;47664;51.660;-0.100;2022-10-16T12:55:56;100554.49;;;15.57;43.62
61761;BME280;47664;51.660;-0.100;2022-10-16T12:58:40;100555.76;;;15.34;44.51
61761;BME280;47664;51.660;-0.100;2022-10-16T13:01:20;100554.73;;;15.17;45.36
61761;BME280;47664;51.660;-0.100;2022-10-16T13:04:09;100556.38;;;15.55;43.75
61761;BME280;47664;51.660;-0.100;2022-10-16T13:06:45;100553.00;;;15.07;43.90
61761;BME280;47664;51.660;-0.100;2022-10-16T13:09:34;100551.45;;;15.26;44.76
61761;BME280;47664;51.660;-0.100;2022-10-16T13:12:16;100548.91;;;15.85;44.17
61761;BME280;47664;51.660;-0.100;2022-10-16T13:14:56;100540.29;;;15.85;43.87
61761;BME280;47664;51.660;-0.100;2022-10-16T13:17:33;100532.55;;;16.43;43.30
61761;BME280;47664;51.660;-0.100;2022-10-16T13:20:12;100533.99;;;16.49;41.81